createdAt,value
2017-08-29T00:00:45.900Z,1021.61
2017-08-29T00:01:47.784Z,1021.60
2017-08-29T00:02:49.667Z,1021.58
2017-08-29T00:03:51.555Z,1021.55
2017-08-29T00:05:05.710Z,1021.54
2017-08-29T00:06:07.595Z,1021.50
2017-08-29T00:07:09.483Z,1021.51
2017-08-29T00:08:11.365Z,1021.52
2017-08-29T00:09:13.184Z,1021.50
2017-08-29T00:10:15.016Z,1021.50
2017-08-29T00:11:16.900Z,1021.51
2017-08-29T00:12:18.784Z,1021.54
2017-08-29T00:13:20.668Z,1021.49
2017-08-29T00:14:34.838Z,1021.49
2017-08-29T00:15:36.720Z,1021.50
2017-08-29T00:16:38.615Z,1021.50
2017-08-29T00:17:40.499Z,1021.49
2017-08-29T00:18:42.317Z,1021.50
2017-08-29T00:19:44.148Z,1021.50
2017-08-29T00:20:46.021Z,1021.53
2017-08-29T00:21:47.905Z,1021.54
2017-08-29T00:22:49.790Z,1021.55
2017-08-29T00:24:03.994Z,1021.59
2017-08-29T00:25:05.879Z,1021.53
2017-08-29T00:26:07.763Z,1021.61
2017-08-29T00:27:09.659Z,1021.56
2017-08-29T00:28:11.489Z,1021.57
2017-08-29T00:29:13.309Z,1021.55
2017-08-29T00:30:15.196Z,1021.53
2017-08-29T00:31:17.078Z,1021.56
2017-08-29T00:32:18.962Z,1021.51
2017-08-29T00:33:33.119Z,1021.52
2017-08-29T00:34:35.000Z,1021.52
2017-08-29T00:35:36.891Z,1021.53
2017-08-29T00:36:38.775Z,1021.52
2017-08-29T00:37:40.596Z,1021.51
2017-08-29T00:38:42.416Z,1021.51
2017-08-29T00:39:44.301Z,1021.48
2017-08-29T00:40:46.185Z,1021.49
2017-08-29T00:41:48.067Z,1021.48
2017-08-29T00:43:02.228Z,1021.53
2017-08-29T00:44:04.110Z,1021.56
2017-08-29T00:45:05.993Z,1021.51
2017-08-29T00:46:07.874Z,1021.55
2017-08-29T00:47:09.693Z,1021.52
2017-08-29T00:48:11.513Z,1021.51
2017-08-29T00:49:13.400Z,1021.51
2017-08-29T00:50:15.283Z,1021.50
2017-08-29T00:51:17.168Z,1021.50
2017-08-29T00:52:31.325Z,1021.50
2017-08-29T00:53:33.208Z,1021.50
2017-08-29T00:54:35.098Z,1021.51
2017-08-29T00:55:36.981Z,1021.51
2017-08-29T00:56:38.800Z,1021.46
2017-08-29T00:57:40.619Z,1021.47
2017-08-29T00:58:42.503Z,1021.48
2017-08-29T00:59:44.388Z,1021.53
2017-08-29T01:00:46.273Z,1021.52
2017-08-29T01:02:00.429Z,1021.49
2017-08-29T01:03:02.312Z,1021.49
2017-08-29T01:04:04.201Z,1021.50
2017-08-29T01:05:06.085Z,1021.47
2017-08-29T01:06:07.904Z,1021.44
2017-08-29T01:07:09.724Z,1021.46
2017-08-29T01:08:11.611Z,1021.46
2017-08-29T01:09:13.492Z,1021.43
2017-08-29T01:10:15.382Z,1021.44
2017-08-29T01:11:29.583Z,1021.44
2017-08-29T01:12:31.466Z,1021.43
2017-08-29T01:13:33.351Z,1021.45
2017-08-29T01:14:35.235Z,1021.48
2017-08-29T01:15:37.054Z,1021.45
2017-08-29T01:16:38.888Z,1021.46
2017-08-29T01:17:40.774Z,1021.42
2017-08-29T01:18:42.661Z,1021.44
2017-08-29T01:19:44.544Z,1021.43
2017-08-29T01:20:58.697Z,1021.42
2017-08-29T01:22:00.582Z,1021.38
2017-08-29T01:23:02.469Z,1021.38
2017-08-29T01:24:04.351Z,1021.37
2017-08-29T01:25:06.176Z,1021.36
2017-08-29T01:26:07.990Z,1021.38
2017-08-29T01:27:09.878Z,1021.35
2017-08-29T01:28:11.763Z,1021.34
2017-08-29T01:29:13.646Z,1021.37
2017-08-29T01:30:27.800Z,1021.40
2017-08-29T01:31:29.694Z,1021.40
2017-08-29T01:32:31.580Z,1021.40
2017-08-29T01:33:33.466Z,1021.38
2017-08-29T01:34:35.286Z,1021.37
2017-08-29T01:35:37.107Z,1021.36
2017-08-29T01:36:38.992Z,1021.37
2017-08-29T01:37:40.878Z,1021.38
2017-08-29T01:38:42.762Z,1021.38
2017-08-29T01:39:56.919Z,1021.43
2017-08-29T01:40:58.820Z,1021.45
2017-08-29T01:42:00.692Z,1021.43
2017-08-29T01:43:02.569Z,1021.46
2017-08-29T01:44:04.395Z,1021.44
2017-08-29T01:45:06.213Z,1021.36
2017-08-29T01:46:08.098Z,1021.35
2017-08-29T01:47:09.986Z,1021.36
2017-08-29T01:48:11.867Z,1021.39
2017-08-29T01:49:26.072Z,1021.41
2017-08-29T01:50:27.954Z,1021.52
2017-08-29T01:51:29.838Z,1021.51
2017-08-29T01:52:31.733Z,1021.47
2017-08-29T01:53:33.555Z,1021.47
2017-08-29T01:54:35.385Z,1021.45
2017-08-29T01:55:37.270Z,1021.48
2017-08-29T01:56:39.155Z,1021.48
2017-08-29T01:57:41.039Z,1021.44
2017-08-29T01:58:55.194Z,1021.47
2017-08-29T01:59:57.076Z,1021.44
2017-08-29T02:00:58.960Z,1021.47
2017-08-29T02:02:00.855Z,1021.45
2017-08-29T02:03:02.674Z,1021.47
2017-08-29T02:04:04.492Z,1021.42
2017-08-29T02:05:06.374Z,1021.39
2017-08-29T02:06:08.260Z,1021.40
2017-08-29T02:07:10.144Z,1021.36
2017-08-29T02:08:24.297Z,1021.36
2017-08-29T02:09:26.181Z,1021.31
2017-08-29T02:10:28.066Z,1021.30
2017-08-29T02:11:29.960Z,1021.38
2017-08-29T02:12:31.794Z,1021.36
2017-08-29T02:13:33.613Z,1021.36
2017-08-29T02:14:35.497Z,1021.29
2017-08-29T02:15:37.383Z,1021.27
2017-08-29T02:16:39.266Z,1021.27
2017-08-29T02:17:53.422Z,1021.20
2017-08-29T02:18:55.305Z,1021.20
2017-08-29T02:19:57.189Z,1021.22
2017-08-29T02:20:59.073Z,1021.17
2017-08-29T02:22:00.895Z,1021.16
2017-08-29T02:23:02.712Z,1021.13
2017-08-29T02:24:04.605Z,1021.12
2017-08-29T02:25:06.490Z,1021.14
2017-08-29T02:26:08.382Z,1021.15
2017-08-29T02:27:22.524Z,1021.17
2017-08-29T02:28:24.406Z,1021.08
2017-08-29T02:29:26.299Z,1021.11
2017-08-29T02:30:28.183Z,1021.07
2017-08-29T02:31:30.004Z,1021.11
2017-08-29T02:32:31.821Z,1021.07
2017-08-29T02:33:33.717Z,1021.05
2017-08-29T02:34:35.603Z,1021.08
2017-08-29T02:35:37.485Z,1021.09
2017-08-29T02:36:51.645Z,1021.05
2017-08-29T02:37:53.527Z,1021.07
2017-08-29T02:38:55.411Z,1020.98
2017-08-29T02:39:57.305Z,1021.04
2017-08-29T02:40:59.126Z,1021.10
2017-08-29T02:42:00.943Z,1021.02
2017-08-29T02:43:02.836Z,1021.05
2017-08-29T02:44:04.728Z,1021.05
2017-08-29T02:45:06.612Z,1021.00
2017-08-29T02:46:20.767Z,1021.04
2017-08-29T02:47:22.652Z,1021.07
2017-08-29T02:48:24.535Z,1021.02
2017-08-29T02:49:26.418Z,1020.98
2017-08-29T02:50:28.240Z,1020.93
2017-08-29T02:51:30.058Z,1020.95
2017-08-29T02:52:31.943Z,1020.99
2017-08-29T02:53:33.828Z,1020.90
2017-08-29T02:54:35.720Z,1020.92
2017-08-29T02:55:49.877Z,1020.88
2017-08-29T02:56:51.760Z,1020.85
2017-08-29T02:57:53.646Z,1020.84
2017-08-29T02:58:55.529Z,1020.89
2017-08-29T02:59:57.351Z,1020.84
2017-08-29T03:00:59.169Z,1020.91
2017-08-29T03:02:01.053Z,1020.82
2017-08-29T03:03:02.940Z,1020.84
2017-08-29T03:04:04.833Z,1020.84
2017-08-29T03:05:18.999Z,1020.88
2017-08-29T03:06:20.902Z,1020.83
2017-08-29T03:07:22.785Z,1020.76
2017-08-29T03:08:24.678Z,1020.82
2017-08-29T03:09:26.502Z,1020.88
2017-08-29T03:10:28.317Z,1020.86
2017-08-29T03:11:30.213Z,1020.87
2017-08-29T03:12:32.110Z,1020.79
2017-08-29T03:13:34.005Z,1020.81
2017-08-29T03:14:48.161Z,1020.83
2017-08-29T03:15:50.043Z,1020.80
2017-08-29T03:16:51.937Z,1020.80
2017-08-29T03:17:53.820Z,1020.85
2017-08-29T03:18:55.643Z,1020.92
2017-08-29T03:19:57.458Z,1020.78
2017-08-29T03:20:59.340Z,1020.81
2017-08-29T03:22:01.226Z,1020.77
2017-08-29T03:23:03.108Z,1020.77
2017-08-29T03:24:17.263Z,1020.78
2017-08-29T03:25:19.147Z,1020.76
2017-08-29T03:26:21.031Z,1020.71
2017-08-29T03:27:22.915Z,1020.77
2017-08-29T03:28:24.736Z,1020.77
2017-08-29T03:29:26.556Z,1020.81
2017-08-29T03:30:28.452Z,1020.80
2017-08-29T03:31:30.341Z,1020.84
2017-08-29T03:32:32.225Z,1020.81
2017-08-29T03:33:46.574Z,1020.81
2017-08-29T03:34:48.468Z,1020.81
2017-08-29T03:35:50.354Z,1020.81
2017-08-29T03:36:52.238Z,1020.86
2017-08-29T03:37:54.058Z,1020.77
2017-08-29T03:38:55.875Z,1020.74
2017-08-29T03:39:57.757Z,1020.80
2017-08-29T03:40:59.642Z,1020.82
2017-08-29T03:42:01.525Z,1020.82
2017-08-29T03:43:15.679Z,1020.79
2017-08-29T03:44:17.561Z,1020.77
2017-08-29T03:45:19.447Z,1020.75
2017-08-29T03:46:21.331Z,1020.75
2017-08-29T03:47:23.152Z,1020.73
2017-08-29T03:48:24.982Z,1020.76
2017-08-29T03:49:26.880Z,1020.83
2017-08-29T03:50:28.766Z,1020.72
2017-08-29T03:51:30.653Z,1020.69
2017-08-29T03:52:44.809Z,1020.74
2017-08-29T03:53:46.690Z,1020.72
2017-08-29T03:54:48.583Z,1020.76
2017-08-29T03:55:50.479Z,1020.75
2017-08-29T03:56:52.301Z,1020.72
2017-08-29T03:57:54.121Z,1020.75
2017-08-29T03:58:56.006Z,1020.77
2017-08-29T03:59:57.891Z,1020.77
2017-08-29T04:00:59.778Z,1020.74
2017-08-29T04:02:13.995Z,1020.75
2017-08-29T04:03:15.883Z,1020.73
2017-08-29T04:04:17.764Z,1020.74
2017-08-29T04:05:19.649Z,1020.76
2017-08-29T04:06:21.472Z,1020.74
2017-08-29T04:07:23.300Z,1020.77
2017-08-29T04:08:25.186Z,1020.73
2017-08-29T04:09:27.071Z,1020.73
2017-08-29T04:10:28.958Z,1020.70
2017-08-29T04:11:43.112Z,1020.67
2017-08-29T04:12:44.998Z,1020.71
2017-08-29T04:13:46.886Z,1020.72
2017-08-29T04:14:48.773Z,1020.71
2017-08-29T04:15:50.594Z,1020.73
2017-08-29T04:16:52.421Z,1020.78
2017-08-29T04:17:54.310Z,1020.74
2017-08-29T04:18:56.194Z,1020.71
2017-08-29T04:19:58.095Z,1020.74
2017-08-29T04:21:12.253Z,1020.77
2017-08-29T04:22:14.150Z,1020.78
2017-08-29T04:23:16.036Z,1020.73
2017-08-29T04:24:17.940Z,1020.70
2017-08-29T04:25:19.760Z,1020.75
2017-08-29T04:26:21.581Z,1020.78
2017-08-29T04:27:23.469Z,1020.81
2017-08-29T04:28:25.360Z,1020.78
2017-08-29T04:29:27.245Z,1020.78
2017-08-29T04:30:41.415Z,1020.79
2017-08-29T04:31:43.324Z,1020.82
2017-08-29T04:32:45.238Z,1020.90
2017-08-29T04:33:47.135Z,1020.88
2017-08-29T04:34:48.961Z,1020.90
2017-08-29T04:35:50.785Z,1020.89
2017-08-29T04:36:52.684Z,1020.89
2017-08-29T04:37:54.583Z,1020.87
2017-08-29T04:38:56.468Z,1020.90
2017-08-29T04:40:10.627Z,1020.94
2017-08-29T04:41:12.511Z,1020.94
2017-08-29T04:42:14.398Z,1020.94
2017-08-29T04:43:16.284Z,1020.91
2017-08-29T04:44:18.113Z,1020.85
2017-08-29T04:45:19.947Z,1020.86
2017-08-29T04:46:21.837Z,1020.84
2017-08-29T04:47:23.726Z,1020.89
2017-08-29T04:48:25.613Z,1020.89
2017-08-29T04:49:39.905Z,1020.88
2017-08-29T04:50:41.816Z,1020.84
2017-08-29T04:51:43.682Z,1020.87
2017-08-29T04:52:45.563Z,1020.89
2017-08-29T04:53:47.391Z,1020.84
2017-08-29T04:54:49.214Z,1020.88
2017-08-29T04:55:51.101Z,1020.89
2017-08-29T04:56:52.987Z,1020.87
2017-08-29T04:57:54.890Z,1020.93
2017-08-29T04:59:09.089Z,1020.89
2017-08-29T05:00:10.973Z,1020.90
2017-08-29T05:01:12.861Z,1020.92
2017-08-29T05:02:14.748Z,1020.89
2017-08-29T05:03:16.600Z,1020.94
2017-08-29T05:04:18.399Z,1020.98
2017-08-29T05:05:20.299Z,1020.91
2017-08-29T05:06:22.186Z,1020.86
2017-08-29T05:07:24.087Z,1020.86
2017-08-29T05:08:38.246Z,1020.89
2017-08-29T05:09:40.130Z,1020.90
2017-08-29T05:10:42.017Z,1020.93
2017-08-29T05:11:43.904Z,1020.93
2017-08-29T05:12:45.741Z,1020.93
2017-08-29T05:13:47.564Z,1020.96
2017-08-29T05:14:49.452Z,1020.96
2017-08-29T05:15:51.338Z,1020.91
2017-08-29T05:16:53.228Z,1020.93
2017-08-29T05:18:07.387Z,1020.94
2017-08-29T05:19:09.273Z,1020.96
2017-08-29T05:20:11.163Z,1020.94
2017-08-29T05:21:13.053Z,1020.94
2017-08-29T05:22:14.881Z,1020.94
2017-08-29T05:23:16.704Z,1020.93
2017-08-29T05:24:18.592Z,1020.94
2017-08-29T05:25:20.482Z,1020.95
2017-08-29T05:26:22.377Z,1021.00
2017-08-29T05:27:36.536Z,1020.96
2017-08-29T05:28:38.421Z,1021.01
2017-08-29T05:29:40.310Z,1020.95
2017-08-29T05:30:42.198Z,1021.00
2017-08-29T05:31:44.022Z,1021.01
2017-08-29T05:32:45.845Z,1021.04
2017-08-29T05:33:47.745Z,1021.00
2017-08-29T05:34:49.634Z,1021.02
2017-08-29T05:35:51.540Z,1021.04
2017-08-29T05:37:05.701Z,1020.98
2017-08-29T05:38:07.586Z,1020.99
2017-08-29T05:39:09.474Z,1021.01
2017-08-29T05:40:11.361Z,1021.02
2017-08-29T05:41:13.198Z,1020.99
2017-08-29T05:42:15.022Z,1021.02
2017-08-29T05:43:16.907Z,1021.04
2017-08-29T05:44:18.797Z,1021.04
2017-08-29T05:45:20.680Z,1021.03
2017-08-29T05:46:34.852Z,1021.07
2017-08-29T05:47:36.733Z,1021.03
2017-08-29T05:48:38.621Z,1021.04
2017-08-29T05:49:40.505Z,1021.02
2017-08-29T05:50:42.344Z,1021.04
2017-08-29T05:51:44.168Z,1021.01
2017-08-29T05:52:46.056Z,1021.00
2017-08-29T05:53:47.945Z,1021.09
2017-08-29T05:54:49.833Z,1021.06
2017-08-29T05:56:04.044Z,1021.07
2017-08-29T05:57:05.930Z,1021.07
2017-08-29T05:58:07.817Z,1021.09
2017-08-29T05:59:09.708Z,1021.13
2017-08-29T06:00:11.535Z,1021.13
2017-08-29T06:01:13.360Z,1021.07
2017-08-29T06:02:15.250Z,1021.13
2017-08-29T06:03:17.139Z,1021.13
2017-08-29T06:04:19.028Z,1021.13
2017-08-29T06:05:33.208Z,1021.17
2017-08-29T06:06:35.076Z,1021.17
2017-08-29T06:07:36.964Z,1021.16
2017-08-29T06:08:38.867Z,1021.10
2017-08-29T06:09:40.694Z,1021.10
2017-08-29T06:10:42.521Z,1021.12
2017-08-29T06:11:44.406Z,1021.11
2017-08-29T06:12:46.296Z,1021.08
2017-08-29T06:13:48.185Z,1021.10
2017-08-29T06:15:02.346Z,1021.10
2017-08-29T06:16:04.230Z,1021.10
2017-08-29T06:17:06.120Z,1021.08
2017-08-29T06:18:08.005Z,1021.08
2017-08-29T06:19:09.832Z,1021.08
2017-08-29T06:20:11.670Z,1021.07
2017-08-29T06:21:13.578Z,1021.12
2017-08-29T06:22:15.468Z,1021.08
2017-08-29T06:23:17.355Z,1021.08
2017-08-29T06:24:31.520Z,1021.08
2017-08-29T06:25:33.407Z,1021.07
2017-08-29T06:26:35.294Z,1021.08
2017-08-29T06:27:37.183Z,1021.05
2017-08-29T06:28:39.009Z,1021.05
2017-08-29T06:29:40.838Z,1021.02
2017-08-29T06:30:42.725Z,1021.01
2017-08-29T06:31:44.615Z,1020.99
2017-08-29T06:32:46.504Z,1021.05
2017-08-29T06:34:00.668Z,1021.07
2017-08-29T06:35:02.570Z,1021.10
2017-08-29T06:36:04.456Z,1021.11
2017-08-29T06:37:06.344Z,1021.12
2017-08-29T06:38:08.175Z,1021.11
2017-08-29T06:39:10.000Z,1021.16
2017-08-29T06:40:11.887Z,1021.10
2017-08-29T06:41:13.776Z,1021.12
2017-08-29T06:42:15.676Z,1021.09
2017-08-29T06:43:29.895Z,1021.12
2017-08-29T06:44:31.775Z,1021.12
2017-08-29T06:45:33.662Z,1021.10
2017-08-29T06:46:35.551Z,1021.08
2017-08-29T06:47:37.380Z,1021.09
2017-08-29T06:48:39.206Z,1021.05
2017-08-29T06:49:41.097Z,1021.10
2017-08-29T06:50:42.986Z,1021.06
2017-08-29T06:51:44.875Z,1021.06
2017-08-29T06:52:59.085Z,1021.06
2017-08-29T06:54:00.972Z,1021.07
2017-08-29T06:55:02.859Z,1021.11
2017-08-29T06:56:04.749Z,1021.11
2017-08-29T06:57:06.581Z,1021.08
2017-08-29T06:58:08.405Z,1021.09
2017-08-29T06:59:10.292Z,1021.11
2017-08-29T07:00:12.180Z,1021.10
2017-08-29T07:01:14.069Z,1021.08
2017-08-29T07:02:28.233Z,1021.06
2017-08-29T07:03:30.117Z,1021.06
2017-08-29T07:04:32.008Z,1021.07
2017-08-29T07:05:33.898Z,1021.07
2017-08-29T07:06:35.732Z,1021.06
2017-08-29T07:07:37.556Z,1021.05
2017-08-29T07:08:39.443Z,1021.05
2017-08-29T07:09:41.333Z,1021.01
2017-08-29T07:10:43.230Z,1021.01
2017-08-29T07:11:57.391Z,1021.03
2017-08-29T07:12:59.281Z,1020.99
2017-08-29T07:14:01.168Z,1021.05
2017-08-29T07:15:03.055Z,1021.04
2017-08-29T07:16:04.884Z,1021.07
2017-08-29T07:17:06.712Z,1021.08
2017-08-29T07:18:08.600Z,1021.08
2017-08-29T07:19:10.490Z,1021.08
2017-08-29T07:20:12.377Z,1021.14
2017-08-29T07:21:26.542Z,1021.12
2017-08-29T07:22:28.428Z,1021.12
2017-08-29T07:23:30.316Z,1021.16
2017-08-29T07:24:32.205Z,1021.18
2017-08-29T07:25:34.036Z,1021.18
2017-08-29T07:26:35.858Z,1021.14
2017-08-29T07:27:37.757Z,1021.14
2017-08-29T07:28:39.645Z,1021.17
2017-08-29T07:29:41.534Z,1021.16
2017-08-29T07:30:55.698Z,1021.08
2017-08-29T07:31:57.584Z,1021.06
2017-08-29T07:32:59.473Z,1021.08
2017-08-29T07:34:01.367Z,1021.11
2017-08-29T07:35:03.200Z,1021.09
2017-08-29T07:36:05.028Z,1021.10
2017-08-29T07:37:06.915Z,1021.08
2017-08-29T07:38:08.806Z,1021.03
2017-08-29T07:39:10.707Z,1021.05
2017-08-29T07:40:24.872Z,1021.03
2017-08-29T07:41:26.758Z,1021.06
2017-08-29T07:42:28.647Z,1021.04
2017-08-29T07:43:30.535Z,1021.04
2017-08-29T07:44:32.379Z,1021.08
2017-08-29T07:45:34.191Z,1021.03
2017-08-29T07:46:36.090Z,1021.10
2017-08-29T07:47:37.997Z,1021.05
2017-08-29T07:48:39.887Z,1021.05
2017-08-29T07:49:54.101Z,1021.11
2017-08-29T07:50:55.989Z,1021.09
2017-08-29T07:51:57.886Z,1021.04
2017-08-29T07:52:59.781Z,1021.05
2017-08-29T07:54:01.610Z,1021.07
2017-08-29T07:55:03.436Z,1021.05
2017-08-29T07:56:05.324Z,1021.03
2017-08-29T07:57:07.216Z,1021.06
2017-08-29T07:58:09.105Z,1021.05
2017-08-29T07:59:23.269Z,1021.03
2017-08-29T08:00:25.155Z,1021.03
2017-08-29T08:01:27.043Z,1021.02
2017-08-29T08:02:28.930Z,1021.02
2017-08-29T08:03:30.759Z,1021.03
2017-08-29T08:04:32.586Z,1021.02
2017-08-29T08:05:34.474Z,1021.02
2017-08-29T08:06:36.364Z,1021.03
2017-08-29T08:07:38.263Z,1021.01
2017-08-29T08:08:52.430Z,1021.00
2017-08-29T08:09:54.319Z,1020.99
2017-08-29T08:10:56.207Z,1021.01
2017-08-29T08:11:58.096Z,1020.98
2017-08-29T08:12:59.924Z,1020.97
2017-08-29T08:14:01.762Z,1021.00
2017-08-29T08:15:03.652Z,1020.96
2017-08-29T08:16:05.545Z,1020.97
2017-08-29T08:17:07.439Z,1020.97
2017-08-29T08:18:21.604Z,1020.97
2017-08-29T08:19:23.515Z,1021.00
2017-08-29T08:20:25.459Z,1020.96
2017-08-29T08:21:27.396Z,1020.99
2017-08-29T08:22:29.278Z,1020.99
2017-08-29T08:23:31.154Z,1020.97
2017-08-29T08:24:33.089Z,1020.95
2017-08-29T08:25:35.026Z,1020.97
2017-08-29T08:26:36.960Z,1020.97
2017-08-29T08:27:51.196Z,1020.95
2017-08-29T08:28:53.106Z,1020.95
2017-08-29T08:29:55.034Z,1020.96
2017-08-29T08:30:56.970Z,1020.94
2017-08-29T08:31:58.840Z,1020.94
2017-08-29T08:33:00.708Z,1020.83
2017-08-29T08:34:02.665Z,1020.91
2017-08-29T08:35:04.596Z,1020.83
2017-08-29T08:36:06.536Z,1020.85
2017-08-29T08:37:20.774Z,1020.80
2017-08-29T08:38:22.696Z,1020.79
2017-08-29T08:39:24.639Z,1020.78
2017-08-29T08:40:26.573Z,1020.80
2017-08-29T08:41:28.437Z,1020.78
2017-08-29T08:42:30.312Z,1020.75
2017-08-29T08:43:32.230Z,1020.73
2017-08-29T08:44:34.162Z,1020.76
2017-08-29T08:45:36.107Z,1020.77
2017-08-29T08:46:50.301Z,1020.75
2017-08-29T08:47:52.214Z,1020.78
2017-08-29T08:48:54.105Z,1020.78
2017-08-29T08:49:55.995Z,1020.78
2017-08-29T08:50:57.822Z,1020.79
2017-08-29T08:51:59.654Z,1020.76
2017-08-29T08:53:01.544Z,1020.73
2017-08-29T08:54:03.399Z,1020.74
2017-08-29T08:55:05.227Z,1020.71
2017-08-29T08:56:19.412Z,1020.74
2017-08-29T08:57:21.299Z,1020.74
2017-08-29T08:58:23.191Z,1020.77
2017-08-29T08:59:25.077Z,1020.69
2017-08-29T09:00:26.919Z,1020.70
2017-08-29T09:01:28.766Z,1020.67
2017-08-29T09:02:30.656Z,1020.66
2017-08-29T09:03:32.546Z,1020.69
2017-08-29T09:04:34.446Z,1020.72
2017-08-29T09:05:48.611Z,1020.69
2017-08-29T09:06:50.498Z,1020.74
2017-08-29T09:07:52.389Z,1020.67
2017-08-29T09:08:54.309Z,1020.65
2017-08-29T09:09:56.144Z,1020.69
2017-08-29T09:10:57.974Z,1020.59
2017-08-29T09:11:59.862Z,1020.62
2017-08-29T09:13:01.758Z,1020.62
2017-08-29T09:14:03.645Z,1020.66
2017-08-29T09:15:17.810Z,1020.61
2017-08-29T09:16:19.713Z,1020.65
2017-08-29T09:17:21.602Z,1020.67
2017-08-29T09:18:23.496Z,1020.63
2017-08-29T09:19:25.326Z,1020.61
2017-08-29T09:20:27.156Z,1020.59
2017-08-29T09:21:29.048Z,1020.63
2017-08-29T09:22:30.938Z,1020.60
2017-08-29T09:23:32.837Z,1020.62
2017-08-29T09:24:47.013Z,1020.63
2017-08-29T09:25:48.897Z,1020.62
2017-08-29T09:26:50.796Z,1020.66
2017-08-29T09:27:52.681Z,1020.62
2017-08-29T09:28:54.522Z,1020.60
2017-08-29T09:29:56.351Z,1020.57
2017-08-29T09:30:58.243Z,1020.62
2017-08-29T09:32:00.132Z,1020.59
2017-08-29T09:33:02.031Z,1020.59
2017-08-29T09:34:16.196Z,1020.64
2017-08-29T09:35:18.084Z,1020.60
2017-08-29T09:36:19.975Z,1020.59
2017-08-29T09:37:21.862Z,1020.58
2017-08-29T09:38:23.689Z,1020.60
2017-08-29T09:39:25.520Z,1020.51
2017-08-29T09:40:27.410Z,1020.56
2017-08-29T09:41:29.303Z,1020.56
2017-08-29T09:42:31.191Z,1020.56
2017-08-29T09:43:45.360Z,1020.62
2017-08-29T09:44:47.254Z,1020.57
2017-08-29T09:45:49.138Z,1020.59
2017-08-29T09:46:51.027Z,1020.52
2017-08-29T09:47:52.869Z,1020.54
2017-08-29T09:48:54.700Z,1020.56
2017-08-29T09:49:56.589Z,1020.56
2017-08-29T09:50:58.483Z,1020.54
2017-08-29T09:52:00.370Z,1020.54
2017-08-29T09:53:14.535Z,1020.55
2017-08-29T09:54:16.423Z,1020.52
2017-08-29T09:55:18.315Z,1020.50
2017-08-29T09:56:20.206Z,1020.48
2017-08-29T09:57:22.049Z,1020.49
2017-08-29T09:58:23.877Z,1020.45
2017-08-29T09:59:25.772Z,1020.46
2017-08-29T10:00:27.660Z,1020.49
2017-08-29T10:01:29.550Z,1020.45
2017-08-29T10:02:43.715Z,1020.44
2017-08-29T10:03:45.602Z,1020.46
2017-08-29T10:04:47.503Z,1020.50
2017-08-29T10:05:49.394Z,1020.53
2017-08-29T10:06:51.228Z,1020.50
2017-08-29T10:07:53.056Z,1020.47
2017-08-29T10:08:54.948Z,1020.43
2017-08-29T10:09:56.839Z,1020.43
2017-08-29T10:10:58.729Z,1020.49
2017-08-29T10:12:12.894Z,1020.42
2017-08-29T10:13:14.781Z,1020.46
2017-08-29T10:14:16.672Z,1020.43
2017-08-29T10:15:18.565Z,1020.41
2017-08-29T10:16:20.396Z,1020.39
2017-08-29T10:17:22.223Z,1020.37
2017-08-29T10:18:24.116Z,1020.37
2017-08-29T10:19:26.008Z,1020.38
2017-08-29T10:20:27.897Z,1020.35
2017-08-29T10:21:42.076Z,1020.34
2017-08-29T10:22:43.964Z,1020.33
2017-08-29T10:23:45.864Z,1020.35
2017-08-29T10:24:47.742Z,1020.32
2017-08-29T10:25:49.586Z,1020.30
2017-08-29T10:26:51.414Z,1020.35
2017-08-29T10:27:53.315Z,1020.34
2017-08-29T10:28:55.198Z,1020.32
2017-08-29T10:29:57.102Z,1020.32
2017-08-29T10:31:11.265Z,1020.27
2017-08-29T10:32:13.152Z,1020.28
2017-08-29T10:33:15.068Z,1020.29
2017-08-29T10:34:16.966Z,1020.28
2017-08-29T10:35:18.798Z,1020.26
2017-08-29T10:36:20.625Z,1020.28
2017-08-29T10:37:22.512Z,1020.23
2017-08-29T10:38:24.415Z,1020.25
2017-08-29T10:39:26.304Z,1020.25
2017-08-29T10:40:40.477Z,1020.22
2017-08-29T10:41:42.363Z,1020.28
2017-08-29T10:42:44.252Z,1020.28
2017-08-29T10:43:46.144Z,1020.28
2017-08-29T10:44:47.980Z,1020.28
2017-08-29T10:45:49.809Z,1020.26
2017-08-29T10:46:51.700Z,1020.28
2017-08-29T10:47:53.595Z,1020.25
2017-08-29T10:48:55.495Z,1020.22
2017-08-29T10:50:09.661Z,1020.18
2017-08-29T10:51:11.566Z,1020.13
2017-08-29T10:52:13.452Z,1020.19
2017-08-29T10:53:15.343Z,1020.16
2017-08-29T10:54:17.184Z,1020.15
2017-08-29T10:55:19.012Z,1020.15
2017-08-29T10:56:20.905Z,1020.10
2017-08-29T10:57:22.795Z,1020.09
2017-08-29T10:58:24.694Z,1020.02
2017-08-29T10:59:38.908Z,1020.05
2017-08-29T11:00:40.796Z,1019.96
2017-08-29T11:01:42.692Z,1020.02
2017-08-29T11:02:44.579Z,1019.97
2017-08-29T11:03:46.410Z,1020.00
2017-08-29T11:04:48.238Z,1020.01
2017-08-29T11:05:50.128Z,1019.99
2017-08-29T11:06:52.021Z,1020.00
2017-08-29T11:07:53.910Z,1020.03
2017-08-29T11:09:08.089Z,1020.04
2017-08-29T11:10:09.974Z,1019.99
2017-08-29T11:11:11.865Z,1020.01
2017-08-29T11:12:13.753Z,1020.01
2017-08-29T11:13:15.593Z,1019.98
2017-08-29T11:14:17.439Z,1020.01
2017-08-29T11:15:19.931Z,1020.03
2017-08-29T11:16:22.729Z,1019.96
2017-08-29T11:17:25.514Z,1020.02
2017-08-29T11:18:40.473Z,1020.02
2017-08-29T11:19:43.195Z,1020.03
2017-08-29T11:20:45.738Z,1020.05
2017-08-29T11:21:48.589Z,1020.02
2017-08-29T11:22:51.484Z,1020.03
2017-08-29T11:23:53.870Z,1020.03
2017-08-29T11:24:56.595Z,1020.03
2017-08-29T11:25:59.238Z,1020.02
2017-08-29T11:27:02.045Z,1020.00
2017-08-29T11:28:16.952Z,1019.98
2017-08-29T11:29:19.712Z,1019.94
2017-08-29T11:30:22.508Z,1019.95
2017-08-29T11:31:25.201Z,1019.94
2017-08-29T11:32:28.312Z,1019.93
2017-08-29T11:33:30.965Z,1019.92
2017-08-29T11:34:33.017Z,1019.93
2017-08-29T11:35:34.909Z,1019.93
2017-08-29T11:36:36.797Z,1019.91
2017-08-29T11:37:50.966Z,1019.89
2017-08-29T11:38:52.856Z,1019.93
2017-08-29T11:39:54.748Z,1019.93
2017-08-29T11:40:56.640Z,1019.92
2017-08-29T11:41:58.482Z,1019.89
2017-08-29T11:43:00.314Z,1019.88
2017-08-29T11:44:02.211Z,1019.85
2017-08-29T11:45:04.097Z,1019.85
2017-08-29T11:46:05.989Z,1019.86
2017-08-29T11:47:20.203Z,1019.90
2017-08-29T11:48:22.094Z,1019.82
2017-08-29T11:49:23.984Z,1019.82
2017-08-29T11:50:25.877Z,1019.83
2017-08-29T11:51:27.721Z,1019.79
2017-08-29T11:52:29.548Z,1019.79
2017-08-29T11:53:31.440Z,1019.77
2017-08-29T11:54:33.331Z,1019.78
2017-08-29T11:55:35.230Z,1019.80
2017-08-29T11:56:49.406Z,1019.75
2017-08-29T11:57:51.284Z,1019.74
2017-08-29T11:58:53.183Z,1019.73
2017-08-29T11:59:55.122Z,1019.69
2017-08-29T12:00:56.954Z,1019.71
2017-08-29T12:01:58.785Z,1019.69
2017-08-29T12:03:00.676Z,1019.69
2017-08-29T12:04:02.647Z,1019.66
2017-08-29T12:05:04.500Z,1019.70
2017-08-29T12:06:18.666Z,1019.63
2017-08-29T12:07:20.554Z,1019.63
2017-08-29T12:08:22.447Z,1019.66
2017-08-29T12:09:24.337Z,1019.64
2017-08-29T12:10:26.173Z,1019.63
2017-08-29T12:11:28.003Z,1019.64
2017-08-29T12:12:29.896Z,1019.69
2017-08-29T12:13:31.786Z,1019.62
2017-08-29T12:14:33.671Z,1019.64
2017-08-29T12:15:47.840Z,1019.61
2017-08-29T12:16:49.742Z,1019.61
2017-08-29T12:17:51.634Z,1019.61
2017-08-29T12:18:53.553Z,1019.59
2017-08-29T12:19:55.428Z,1019.60
2017-08-29T12:20:57.652Z,1019.58
2017-08-29T12:21:59.521Z,1019.56
2017-08-29T12:23:01.424Z,1019.50
2017-08-29T12:24:03.303Z,1019.54
2017-08-29T12:25:17.479Z,1019.51
2017-08-29T12:26:19.438Z,1019.53
2017-08-29T12:27:21.391Z,1019.48
2017-08-29T12:28:23.597Z,1019.46
2017-08-29T12:29:25.434Z,1019.47
2017-08-29T12:30:27.631Z,1019.50
2017-08-29T12:31:29.875Z,1019.50
2017-08-29T12:32:31.827Z,1019.45
2017-08-29T12:33:34.105Z,1019.47
2017-08-29T12:34:48.391Z,1019.47
2017-08-29T12:35:50.320Z,1019.47
2017-08-29T12:36:52.209Z,1019.40
2017-08-29T12:37:54.130Z,1019.37
2017-08-29T12:38:55.971Z,1019.32
2017-08-29T12:39:57.815Z,1019.31
2017-08-29T12:41:00.128Z,1019.33
2017-08-29T12:42:02.032Z,1019.32
2017-08-29T12:43:03.935Z,1019.31
2017-08-29T12:44:18.182Z,1019.29
2017-08-29T12:45:20.387Z,1019.30